Terminal Aerodrome Forecast
Issued by NWS Houston/Galveston, TX

Home | Current Version | Previous Version | Text Only | Print | Product List | Glossary On
Versions: 1 2 3 4 5 6 7 8 9 10 11 12 13 14 15 16 17
000
FTUS44 KHGX 272327
TAFCLL
TAF
KCLL 272327Z 2800/2824 08006KT P6SM FEW050 BKN150
      TEMPO 2801/2803 SHRA
     FM280600 08003KT P6SM BKN250
     FM281600 06007KT P6SM SCT035 BKN200 PROB30 2820/2824 TSRA
      BKN035CB=

USA.gov is the U.S. government's official web portal to all federal, state and local government web resources and services.